Have a Safe July 4th! 

Flight Track Log - Related Links

Times and Time Zones

All times are in EDT time to prevent confusion due to time zone crossing. See the N218GJ flight status page for this flight to view local times or setup timezone preferences in your user account.

Time Position Orientation Groundspeed Altitude Reporting Facility
EDT Latitude Longitude Course Direction KTS MPH feet Rate Location/Type
Sun 05:35:12 PM 38.6950 -104.5986 94° East 187 215 13,900  Level Denver Center
Sun 05:36:14 PM 38.7100 -104.5233 76° East 203 234 15,900 1,077 Climbing Denver Center
Sun 05:37:09 PM 38.7456 -104.5250 358° North 224 258 16,000 49 Climbing Denver Center
Sun 05:38:00 PM 39.1212 -104.6167 North  Level FlightAware Approximate
Sun 05:38:17 PM 38.8442 -104.5331 356° North 253 291 16,000  Level Denver Center
Sun 05:39:19 PM 38.9258 -104.5428 355° North 270 311 15,900 -48 Descending Denver Center
Sun 05:40:21 PM 38.9992 -104.5489 356° North 265 305 15,900  Level Denver Center
Sun 05:41:23 PM 39.0733 -104.5575 355° North 267 307 15,900 48 Level Denver Center
Sun 05:42:25 PM 39.1539 -104.5647 356° North 270 311 16,000 919 Climbing Denver Center
Sun 05:43:27 PM 39.2189 -104.5711 356° North 231 266 17,800 1,512 Climbing Denver Center
Sun 05:44:28 PM 39.2767 -104.5786 354° North 208 239 19,100 1,366 Climbing Denver Center
Sun 05:45:30 PM 39.3375 -104.5844 356° North 205 236 20,600 1,306 Climbing Denver Center
Sun 05:46:32 PM 39.3961 -104.5914 355° North 202 232 21,800 1,161 Climbing Denver Center
Sun 05:47:34 PM 39.4528 -104.5961 356° North 203 234 23,000 968 Climbing Denver Center
Sun 05:48:36 PM 39.5111 -104.6019 356° North 209 241 23,800 823 Climbing Denver Center
Sun 05:49:38 PM 39.5694 -104.6061 357° North 212 244 24,700 968 Climbing Denver Center
Sun 05:50:40 PM 39.6386 -104.6133 355° North 212 244 25,800 968 Climbing Denver Center
Sun 05:51:42 PM 39.6953 -104.6203 355° North 210 242 26,700 774 Climbing Denver Center
Sun 05:52:44 PM 39.7528 -104.6256 356° North 209 241 27,400 629 Climbing Denver Center
Sun 05:53:46 PM 39.8075 -104.6314 355° North 205 236 28,000 290 Climbing Denver Center
Sun 05:54:48 PM 39.8669 -104.6375 355° North 208 239 28,000  Level Denver Center
Sun 05:55:50 PM 39.9419 -104.6450 356° North 221 254 28,000  Level Denver Center
Sun 05:56:52 PM 40.0033 -104.6508 356° North 221 254 28,000  Level Denver Center
Sun 05:57:54 PM 40.0639 -104.6569 356° North 221 254 28,000  Level Denver Center
Sun 05:58:56 PM 40.1256 -104.6631 356° North 221 254 28,000  Level Denver Center
Sun 05:59:58 PM 40.1892 -104.6689 356° North 226 260 28,000  Level Denver Center
Sun 06:01:00 PM 40.2519 -104.6761 355° North 227 261 28,000  Level Denver Center
Sun 06:02:02 PM 40.3269 -104.6833 356° North 227 261 28,000  Level Denver Center
Sun 06:03:04 PM 40.3917 -104.6889 356° North 230 265 28,000  Level Denver Center
Sun 06:04:06 PM 40.4558 -104.6961 355° North 230 265 28,000  Level Denver Center
Sun 06:05:08 PM 40.5211 -104.7019 356° North 232 267 28,000  Level Denver Center
Sun 06:06:10 PM 40.5864 -104.7094 355° North 234 269 28,000  Level Denver Center
Sun 06:07:12 PM 40.6514 -104.7150 356° North 234 269 28,000  Level Denver Center
Sun 06:08:14 PM 40.7306 -104.7222 356° North 235 270 28,000  Level Denver Center
Sun 06:09:16 PM 40.7956 -104.7300 355° North 235 270 28,000  Level Denver Center
Sun 06:10:18 PM 40.8603 -104.7367 356° North 231 266 28,000  Level Denver Center
Sun 06:11:20 PM 40.9258 -104.7425 356° North 234 269 28,000  Level Denver Center
Sun 06:12:22 PM 40.9917 -104.7492 356° North 234 269 28,000  Level Denver Center
Sun 06:13:24 PM 41.0611 -104.7556 356° North 234 269 28,000  Level Denver Center
Sun 06:14:26 PM 41.1339 -104.7642 355° North 235 270 28,000  Level Denver Center
Sun 06:15:29 PM 41.1967 -104.7697 356° North 234 269 28,000  Level Denver Center
Sun 06:16:31 PM 41.2600 -104.8086 335° Northwest 228 262 28,000  Level Denver Center
Sun 06:17:33 PM 41.3133 -104.8497 330° Northwest 229 264 28,000  Level Denver Center
Sun 06:18:35 PM 41.3764 -104.9003 329° Northwest 231 266 28,000  Level Denver Center
Sun 06:19:37 PM 41.4258 -104.9447 326° Northwest 229 264 28,000  Level Denver Center
Sun 06:20:39 PM 41.4803 -105.0050 320° Northwest 229 264 28,000  Level Denver Center
Sun 06:21:41 PM 41.5275 -105.0564 321° Northwest 228 262 28,000  Level Denver Center
Sun 06:22:43 PM 41.5753 -105.1075 321° Northwest 228 262 28,000  Level Denver Center
Sun 06:23:45 PM 41.6297 -105.1650 322° Northwest 228 262 28,000  Level Denver Center
Sun 06:24:47 PM 41.6772 -105.2142 322° Northwest 227 261 28,000  Level Denver Center
Sun 06:25:49 PM 41.7342 -105.2728 322° Northwest 227 261 28,000  Level Denver Center
Sun 06:26:51 PM 41.7814 -105.3250 320° Northwest 228 262 28,000  Level Denver Center
Sun 06:27:53 PM 41.8450 -105.3617 337° Northwest 236 272 28,000  Level Denver Center
Sun 06:28:55 PM 41.9056 -105.3956 337° Northwest 233 268 28,000  Level Denver Center
Sun 06:29:57 PM 41.9736 -105.4286 340° North 233 268 28,000  Level Denver Center
Sun 06:30:59 PM 42.0350 -105.4572 341° North 240 276 28,000  Level Denver Center
Sun 06:32:02 PM 42.1033 -105.4906 340° North 239 275 28,000  Level Denver Center
Sun 06:33:04 PM 42.1611 -105.5178 341° North 231 266 28,000  Level Denver Center
Sun 06:34:06 PM 42.2300 -105.5511 340° North 232 267 28,000  Level Denver Center
Sun 06:35:08 PM 42.2878 -105.5789 340° North 232 267 28,000  Level Denver Center
Sun 06:36:10 PM 42.3456 -105.6078 340° North 232 267 28,000 -290 Level Denver Center
Sun 06:37:12 PM 42.4136 -105.6400 341° North 231 266 27,400 -484 Descending Denver Center
Sun 06:38:14 PM 42.4786 -105.6711 341° North 252 290 27,000 -194 Descending Denver Center
Sun 06:39:16 PM 42.5478 -105.7069 339° North 241 277 27,000  Level Denver Center
Sun 06:40:18 PM 42.6083 -105.7367 340° North 241 277 27,000  Level Denver Center
Sun 06:41:20 PM 42.6764 -105.7692 341° North 237 273 27,000  Level Denver Center
Sun 06:42:22 PM 42.7331 -105.7975 340° North 231 266 27,000  Level Denver Center
Sun 06:43:24 PM 42.8011 -105.8314 340° North 229 264 27,000  Level Denver Center
Sun 06:44:26 PM 42.8606 -105.8586 341° North 230 265 27,000  Level Denver Center
Sun 06:45:28 PM 42.9267 -105.8936 339° North 231 266 27,000  Level Denver Center
Sun 06:46:30 PM 42.9853 -105.9225 340° North 231 266 27,000  Level Denver Center
Sun 06:47:32 PM 43.0419 -105.9517 339° North 230 265 27,000 -242 Level Denver Center
Sun 06:48:34 PM 43.1108 -105.9847 341° North 231 266 26,500 -823 Descending Denver Center
Sun 06:49:36 PM 43.1761 -106.0169 340° North 259 298 25,300 -1,210 Descending Denver Center
Sun 06:50:38 PM 43.2575 -106.0583 340° North 277 319 24,000 -629 Descending Denver Center
Sun 06:51:40 PM 43.3253 -106.0928 340° North 276 318 24,000 -435 Level Denver Center
Sun 06:52:42 PM 43.4058 -106.1333 340° North 273 314 23,100 -919 Descending Denver Center
Sun 06:53:44 PM 43.4775 -106.1694 340° North 287 330 22,100 -968 Descending Denver Center
Sun 06:54:46 PM 43.5622 -106.2125 340° North 288 331 21,100 -927 Descending Denver Center
Sun 06:55:47 PM 43.6367 -106.2475 341° North 291 335 20,200 -1,268 Descending Denver Center
Sun 06:56:49 PM 43.7211 -106.2894 340° North 291 335 18,500 -1,548 Descending Denver Center
Sun 06:57:51 PM 43.7936 -106.3261 340° North 291 335 17,000 -1,161 Descending Denver Center
Sun 06:58:53 PM 43.8658 -106.3639 339° North 291 335 16,100 -629 Descending Denver Center
Sun 06:59:55 PM 43.9417 -106.4017 340° North 274 315 15,700 -726 Descending Denver Center
Sun 07:00:57 PM 44.0072 -106.4356 340° North 266 306 14,600 -1,171 Descending Denver Center
Sun 07:01:58 PM 44.0831 -106.4894 333° Northwest 269 310 13,300 -1,171 Descending Denver Center
Sun 07:03:00 PM 44.1472 -106.5342 333° Northwest 269 310 12,200 -871 Descending Denver Center
Sun 07:04:02 PM 44.2083 -106.5767 334° Northwest 269 310 11,500 -677 Descending Denver Center
Sun 07:06:00 PM 44.3054 -106.6424 335° Northwest  Level FlightAware Approximate
Sun 07:13:00 PM 44.7130 -106.9463 325° Northwest  Level FlightAware Approximate
Sun 07:14:00 PM 44.7667 -106.9667 347° North  Level FlightAware Approximate

Login

Don't have an account? Register now (free) for customized features, flight alerts, and more!